This is the latest recevied weather packets stored in our database for station/object VE3EP-1. If no packets are shown the sender has not sent any weather packets the latest 1 day(s).
| Time | Temp. | Humidity | Pressure | Rain* | Wind** | Luminosity | Snow |
|---|---|---|---|---|---|---|---|
| 1778094130 | 8.33° C | 80% | 1012.5 hPa | 0 mm | - | - | - |
| 1778090529 | 7.78° C | 79% | 1012.6 hPa | 0 mm | - | - | - |
| 1778083929 | 8.33° C | 81% | 1012.3 hPa | 0 mm | - | - | - |
| 1778078529 | 6.67° C | 90% | 1012.5 hPa | 0 mm | - | - | - |
| 1778067128 | 5.56° C | 97% | 1012 hPa | 0.51 mm | - | - | - |
| 1778064728 | 5.56° C | 97% | 1011.9 hPa | 1.02 mm | - | - | - |
| 1778063528 | 5.56° C | 97% | 1011.9 hPa | 1.52 mm | - | - | - |
| 1778062928 | 5.56° C | 97% | 1011.9 hPa | 1.52 mm | - | - | - |
| 1778061128 | 5.56° C | 97% | 1012 hPa | 1.52 mm | - | - | - |
| 1778059328 | 5.56° C | 97% | 1012.3 hPa | 1.27 mm | - | - | - |
| 1778057530 | 5.56° C | 97% | 1011.8 hPa | 2.29 mm | - | - | - |
| 1778056328 | 5.56° C | 96% | 1012.2 hPa | 2.79 mm | - | - | - |
| 1778055728 | 5.56° C | 96% | 1012.3 hPa | 2.54 mm | - | - | - |
| 1778053928 | 5.56° C | 96% | 1012.1 hPa | 1.52 mm | - | - | - |
| 1778053331 | 5.56° C | 96% | 1011.9 hPa | 1.27 mm | - | - | - |
| 1778052128 | 6.11° C | 96% | 1012.3 hPa | 0.76 mm | - | - | - |
| 1778050928 | 6.11° C | 96% | 1012.3 hPa | 0.25 mm | - | - | - |
| 1778035929 | 6.11° C | 94% | 1012.5 hPa | 1.78 mm | - | - | - |
| 1778035331 | 6.67° C | 94% | 1012.4 hPa | 2.03 mm | - | - | - |
| 1778034729 | 6.67° C | 94% | 1012.7 hPa | 1.52 mm | - | - | - |
| 1778034129 | 6.67° C | 93% | 1012.9 hPa | 1.02 mm | - | - | - |
| 1778031730 | 7.22° C | 91% | 1012.2 hPa | 0.25 mm | - | - | - |
| 1778029929 | 7.22° C | 90% | 1011.7 hPa | 0.51 mm | - | - | - |
| 1778020929 | 8.89° C | 84% | 1010.2 hPa | 0.76 mm | - | - | - |
| 1778019131 | 10° C | 78% | 1009.9 hPa | 0.25 mm | - | - | - |
* Rain latest hour (hover to see other rain measurements)
** Current wind speed in m/s (hover to see current wind gust speed)